Time;durP1;ratioP1;P1;durP2;ratioP2;P2;SDS_P1;SDS_P2;PMS_P1;PMS_P2;Temp;Humidity;BMP_temperature;BMP_pressure;BME280_temperature;BME280_humidity;BME280_pressure;Samples;Min_cycle;Max_cycle;Signal;HPM_P1;HPM_P2
2020/12/01 00:00:26;;;;;;;;;;;21.70;77.40;;;;;;1769039;80;20183;-77
2020/12/01 00:02:56;;;;;;;;;;;21.70;77.10;;;;;;1763101;80;20128;-78
2020/12/01 00:05:26;;;;;;;;;;;21.70;77.30;;;;;;1776588;79;20145;-78
2020/12/01 00:07:56;;;;;;;;;;;21.60;77.00;;;;;;1775682;80;20181;-79
2020/12/01 00:10:26;;;;;;;;;;;21.60;77.00;;;;;;1786966;79;20471;-77
2020/12/01 00:12:56;;;;;;;;;;;21.60;77.10;;;;;;1782216;79;20522;-79
2020/12/01 00:15:26;;;;;;;;;;;21.70;77.10;;;;;;1768932;80;20165;-79
2020/12/01 00:17:55;;;;;;;;;;;21.70;76.50;;;;;;1756210;80;20204;-79
2020/12/01 00:20:26;;;;;;;;;;;21.70;76.60;;;;;;1756298;81;20141;-78
2020/12/01 00:22:55;;;;;;;;;;;21.80;75.90;;;;;;1743470;81;20257;-79
2020/12/01 00:25:28;;;;;;;;;;;21.90;76.10;;;;;;1814254;78;20129;-79
2020/12/01 00:27:58;;;;;;;;;;;21.90;75.90;;;;;;1782770;79;20196;-79
2020/12/01 00:30:28;;;;;;;;;;;22.00;75.60;;;;;;1776448;79;20207;-79
2020/12/01 00:32:58;;;;;;;;;;;22.00;75.00;;;;;;1767803;79;20172;-80
2020/12/01 00:35:29;;;;;;;;;;;22.10;75.00;;;;;;1788413;78;20134;-79
2020/12/01 00:37:59;;;;;;;;;;;22.20;74.60;;;;;;1783149;80;20255;-78
2020/12/01 00:40:29;;;;;;;;;;;22.20;74.10;;;;;;1784145;79;20406;-78
2020/12/01 00:42:59;;;;;;;;;;;22.30;74.00;;;;;;1782010;79;20299;-79
2020/12/01 00:45:29;;;;;;;;;;;22.40;74.20;;;;;;1780889;79;21051;-80
2020/12/01 00:47:59;;;;;;;;;;;22.40;73.40;;;;;;1779194;79;20211;-80
2020/12/01 00:50:31;;;;;;;;;;;22.40;73.20;;;;;;1781997;79;20184;-79
2020/12/01 00:53:01;;;;;;;;;;;22.50;73.00;;;;;;1779546;79;20135;-79
2020/12/01 00:55:32;;;;;;;;;;;22.50;72.70;;;;;;1783636;79;20231;-79
2020/12/01 00:58:01;;;;;;;;;;;22.60;72.10;;;;;;1816356;78;20250;-79
2020/12/01 01:00:32;;;;;;;;;;;22.70;71.30;;;;;;1814295;78;20215;-79
2020/12/01 01:03:02;;;;;;;;;;;22.70;72.00;;;;;;1843843;77;20273;-78
2020/12/01 01:05:32;;;;;;;;;;;22.70;72.30;;;;;;1842793;77;20219;-79
2020/12/01 01:08:02;;;;;;;;;;;22.80;71.00;;;;;;1818638;77;20220;-78
2020/12/01 01:10:33;;;;;;;;;;;22.80;71.20;;;;;;1816525;78;20266;-79
2020/12/01 01:13:03;;;;;;;;;;;22.90;70.80;;;;;;1823126;78;20212;-79
2020/12/01 01:15:34;;;;;;;;;;;22.90;70.40;;;;;;1835064;77;20238;-79
2020/12/01 01:18:05;;;;;;;;;;;23.00;71.20;;;;;;1846720;77;20557;-79
2020/12/01 01:20:34;;;;;;;;;;;23.00;70.60;;;;;;1841113;77;20251;-78
2020/12/01 01:23:04;;;;;;;;;;;23.10;69.70;;;;;;1842900;77;20459;-79
2020/12/01 01:25:34;;;;;;;;;;;23.10;70.50;;;;;;1837540;77;20162;-78
2020/12/01 01:28:04;;;;;;;;;;;23.00;69.60;;;;;;1821223;77;20301;-78
2020/12/01 01:30:36;;;;;;;;;;;23.10;70.00;;;;;;1826055;77;20425;-78
2020/12/01 01:33:06;;;;;;;;;;;23.00;70.40;;;;;;1835355;77;20226;-80
2020/12/01 01:35:37;;;;;;;;;;;23.10;69.90;;;;;;1827401;77;20220;-78
2020/12/01 01:38:10;;;;;;;;;;;23.10;69.10;;;;;;1813072;78;20346;-80
2020/12/01 01:40:40;;;;;;;;;;;23.20;70.20;;;;;;1817157;77;20825;-78
2020/12/01 01:43:11;;;;;;;;;;;23.20;70.50;;;;;;1845824;77;20208;-81
2020/12/01 01:45:41;;;;;;;;;;;23.20;70.30;;;;;;1840137;77;20217;-83
2020/12/01 01:48:13;;;;;;;;;;;23.20;70.10;;;;;;1841040;77;20213;-76
2020/12/01 01:50:44;;;;;;;;;;;23.30;69.90;;;;;;1837796;77;20252;-68
2020/12/01 01:53:14;;;;;;;;;;;23.30;69.50;;;;;;1836376;77;20211;-69
2020/12/01 01:55:43;;;;;;;;;;;23.40;70.10;;;;;;1835107;77;20224;-67
2020/12/01 01:58:14;;;;;;;;;;;23.40;69.10;;;;;;1843733;77;20258;-70
2020/12/01 02:03:17;;;;;;;;;;;23.60;68.70;;;;;;1834573;77;20185;-68
2020/12/01 02:05:51;;;;;;;;;;;23.60;68.70;;;;;;1842180;77;20587;-68
2020/12/01 02:08:22;;;;;;;;;;;23.60;68.80;;;;;;1846149;77;20337;-68
2020/12/01 02:10:53;;;;;;;;;;;23.60;68.30;;;;;;1832879;77;20278;-69
2020/12/01 02:13:23;;;;;;;;;;;23.70;68.20;;;;;;1807901;78;20503;-69
2020/12/01 02:15:54;;;;;;;;;;;23.70;68.30;;;;;;1810163;77;20309;-69
2020/12/01 02:18:25;;;;;;;;;;;23.70;68.50;;;;;;1825216;77;20259;-70
2020/12/01 02:21:03;;;;;;;;;;;23.80;68.30;;;;;;1830878;77;20931;-71
2020/12/01 02:23:44;;;;;;;;;;;23.90;68.20;;;;;;1836299;77;20713;-69
2020/12/01 02:26:38;;;;;;;;;;;24.00;68.10;;;;;;1826543;77;20218;-70
2020/12/01 02:29:11;;;;;;;;;;;24.10;68.00;;;;;;1835253;77;20207;-69
2020/12/01 02:31:42;;;;;;;;;;;24.10;68.80;;;;;;1839778;77;20231;-71
2020/12/01 02:34:23;;;;;;;;;;;24.10;68.40;;;;;;1837291;77;20353;-70
2020/12/01 02:37:03;;;;;;;;;;;24.10;68.00;;;;;;1833955;77;20182;-69
2020/12/01 02:39:34;;;;;;;;;;;24.20;68.30;;;;;;1839360;77;20285;-71
2020/12/01 02:42:05;;;;;;;;;;;24.20;67.40;;;;;;1836741;77;20189;-71
2020/12/01 02:44:35;;;;;;;;;;;24.20;67.20;;;;;;1813602;78;20239;-71
2020/12/01 02:47:06;;;;;;;;;;;24.30;66.80;;;;;;1804667;78;20592;-71
2020/12/01 02:49:40;;;;;;;;;;;24.40;66.20;;;;;;1814616;78;20256;-71
2020/12/01 02:52:10;;;;;;;;;;;24.40;66.90;;;;;;1807317;78;20253;-69
2020/12/01 02:54:40;;;;;;;;;;;24.40;65.50;;;;;;1769750;80;20541;-68
2020/12/01 02:57:10;;;;;;;;;;;24.50;65.90;;;;;;1810794;78;20540;-71
2020/12/01 02:59:40;;;;;;;;;;;24.50;65.30;;;;;;1846132;77;20432;-69
2020/12/01 03:02:10;;;;;;;;;;;24.60;65.90;;;;;;1839220;77;20249;-68
2020/12/01 03:04:43;;;;;;;;;;;24.60;66.30;;;;;;1843850;77;20210;-70
2020/12/01 03:07:13;;;;;;;;;;;24.60;64.10;;;;;;1847287;77;20191;-69
2020/12/01 03:09:46;;;;;;;;;;;24.70;65.40;;;;;;1842005;77;20534;-71
2020/12/01 03:12:16;;;;;;;;;;;24.80;64.90;;;;;;1842070;77;20261;-69
2020/12/01 03:14:46;;;;;;;;;;;24.90;64.50;;;;;;1808509;78;20528;-70
2020/12/01 03:17:19;;;;;;;;;;;25.00;63.90;;;;;;1814227;78;20289;-69
2020/12/01 03:19:49;;;;;;;;;;;25.10;64.20;;;;;;1801928;78;20239;-68
2020/12/01 03:22:21;;;;;;;;;;;25.10;62.80;;;;;;1803123;78;20215;-68
2020/12/01 03:24:51;;;;;;;;;;;25.20;63.00;;;;;;1781851;79;20221;-69
2020/12/01 03:27:21;;;;;;;;;;;25.30;63.10;;;;;;1806176;78;20207;-68
2020/12/01 03:29:52;;;;;;;;;;;25.40;63.80;;;;;;1806509;78;20245;-68
2020/12/01 03:32:25;;;;;;;;;;;25.50;64.10;;;;;;1804783;78;20198;-68
2020/12/01 03:34:56;;;;;;;;;;;25.60;63.20;;;;;;1814988;78;20253;-68
2020/12/01 03:37:27;;;;;;;;;;;25.60;61.30;;;;;;1822126;77;20171;-69
2020/12/01 03:39:57;;;;;;;;;;;25.70;62.30;;;;;;1803230;78;20541;-69
2020/12/01 03:42:27;;;;;;;;;;;25.80;63.70;;;;;;1797590;78;20220;-70
2020/12/01 03:45:01;;;;;;;;;;;25.90;60.90;;;;;;1814756;78;20220;-69
2020/12/01 03:47:31;;;;;;;;;;;25.90;62.70;;;;;;1788441;78;20436;-70
2020/12/01 03:50:02;;;;;;;;;;;26.00;60.40;;;;;;1788357;79;20241;-68
2020/12/01 03:52:32;;;;;;;;;;;26.10;61.30;;;;;;1819227;78;20334;-69
2020/12/01 03:55:03;;;;;;;;;;;26.20;60.60;;;;;;1849848;77;20248;-68
2020/12/01 03:57:40;;;;;;;;;;;26.30;61.10;;;;;;1849524;77;20230;-67
2020/12/01 04:00:05;;;;;;;;;;;26.30;61.80;;;;;;1844940;77;20210;-68
2020/12/01 04:02:37;;;;;;;;;;;26.40;60.70;;;;;;1848449;77;20580;-69
2020/12/01 04:05:08;;;;;;;;;;;26.50;61.30;;;;;;1850626;77;20228;-69
2020/12/01 04:07:37;;;;;;;;;;;26.60;61.10;;;;;;1847453;77;20527;-69
2020/12/01 04:10:08;;;;;;;;;;;26.70;59.40;;;;;;1847287;77;20522;-69
2020/12/01 04:12:37;;;;;;;;;;;26.70;59.00;;;;;;1846905;77;20229;-69
2020/12/01 04:15:08;;;;;;;;;;;26.90;59.10;;;;;;1846428;77;20494;-69
2020/12/01 04:17:38;;;;;;;;;;;27.00;60.80;;;;;;1852056;77;20265;-69
2020/12/01 04:20:08;;;;;;;;;;;27.00;59.20;;;;;;1847550;76;20349;-69
2020/12/01 04:22:38;;;;;;;;;;;27.10;60.50;;;;;;1857830;77;20286;-68
2020/12/01 04:25:08;;;;;;;;;;;27.20;58.90;;;;;;1847453;77;20255;-67
2020/12/01 04:27:39;;;;;;;;;;;27.20;59.70;;;;;;1791828;79;20242;-69
2020/12/01 04:30:10;;;;;;;;;;;27.30;57.70;;;;;;1790974;79;20217;-68
2020/12/01 04:32:39;;;;;;;;;;;27.40;58.70;;;;;;1813987;78;20186;-69
2020/12/01 04:35:09;;;;;;;;;;;27.50;57.30;;;;;;1794888;80;20339;-68
2020/12/01 04:37:39;;;;;;;;;;;27.60;59.50;;;;;;1779581;79;20552;-68
2020/12/01 04:40:11;;;;;;;;;;;27.70;58.30;;;;;;1786956;79;20360;-69
2020/12/01 04:42:42;;;;;;;;;;;27.80;57.30;;;;;;1785403;79;20202;-68
2020/12/01 04:45:13;;;;;;;;;;;27.80;56.80;;;;;;1832302;77;20262;-68
2020/12/01 04:47:43;;;;;;;;;;;27.90;58.80;;;;;;1841711;77;20458;-69
2020/12/01 04:50:16;;;;;;;;;;;28.00;59.20;;;;;;1843047;77;20162;-68
2020/12/01 04:52:46;;;;;;;;;;;28.00;57.40;;;;;;1845210;77;20471;-68
2020/12/01 04:55:17;;;;;;;;;;;27.90;56.10;;;;;;1845495;77;20221;-68
2020/12/01 04:57:48;;;;;;;;;;;27.90;56.50;;;;;;1838188;77;20174;-68
2020/12/01 05:00:19;;;;;;;;;;;27.90;56.10;;;;;;1840878;77;20304;-68
2020/12/01 05:02:51;;;;;;;;;;;27.90;55.60;;;;;;1810612;78;20259;-69
2020/12/01 05:05:24;;;;;;;;;;;27.90;56.90;;;;;;1785537;79;20176;-69
2020/12/01 05:08:07;;;;;;;;;;;27.90;58.10;;;;;;1798692;78;20483;-69
2020/12/01 05:10:31;;;;;;;;;;;27.80;57.00;;;;;;1779891;79;20222;-69
2020/12/01 05:13:08;;;;;;;;;;;27.70;56.40;;;;;;1815357;78;20994;-70
2020/12/01 05:15:36;;;;;;;;;;;27.70;57.60;;;;;;1779778;80;20230;-68
2020/12/01 05:18:10;;;;;;;;;;;27.70;59.00;;;;;;1797972;79;20130;-69
2020/12/01 05:20:43;;;;;;;;;;;27.70;58.70;;;;;;1804355;78;20421;-69
2020/12/01 05:23:14;;;;;;;;;;;27.70;56.50;;;;;;1789384;79;20214;-69
2020/12/01 05:25:44;;;;;;;;;;;27.70;56.80;;;;;;1783848;79;20222;-69
2020/12/01 05:28:16;;;;;;;;;;;27.80;56.30;;;;;;1815828;78;20905;-69
2020/12/01 05:30:51;;;;;;;;;;;27.90;56.40;;;;;;1815531;77;20202;-69
2020/12/01 05:33:24;;;;;;;;;;;27.90;57.20;;;;;;1838406;77;20206;-69
2020/12/01 05:35:57;;;;;;;;;;;28.00;58.50;;;;;;1841729;77;20237;-69
2020/12/01 05:38:28;;;;;;;;;;;28.20;57.50;;;;;;1839053;77;20227;-69
2020/12/01 05:40:59;;;;;;;;;;;28.40;56.80;;;;;;1831293;77;20275;-69
2020/12/01 05:43:30;;;;;;;;;;;28.40;56.00;;;;;;1833665;77;20258;-70
2020/12/01 05:46:04;;;;;;;;;;;28.50;54.80;;;;;;1829047;77;20772;-70
2020/12/01 05:48:35;;;;;;;;;;;28.60;55.80;;;;;;1813648;77;20187;-68
2020/12/01 05:51:06;;;;;;;;;;;28.70;55.50;;;;;;1835551;77;20177;-69
2020/12/01 05:53:36;;;;;;;;;;;28.80;55.40;;;;;;1826166;77;20130;-69
2020/12/01 05:56:08;;;;;;;;;;;28.90;56.80;;;;;;1837703;77;20410;-69
2020/12/01 05:58:39;;;;;;;;;;;29.00;55.90;;;;;;1837550;78;20182;-70
2020/12/01 06:01:09;;;;;;;;;;;29.00;54.40;;;;;;1829959;77;20484;-70
2020/12/01 06:03:45;;;;;;;;;;;29.10;55.70;;;;;;1827984;77;20433;-70
2020/12/01 06:06:34;;;;;;;;;;;29.10;53.90;;;;;;1764310;79;20197;-69
2020/12/01 06:09:06;;;;;;;;;;;29.10;54.40;;;;;;1764692;80;20246;-69
2020/12/01 06:11:40;;;;;;;;;;;29.20;53.90;;;;;;1793852;79;20241;-70
2020/12/01 06:14:13;;;;;;;;;;;29.20;53.40;;;;;;1778133;80;20289;-69
2020/12/01 06:16:46;;;;;;;;;;;29.20;53.20;;;;;;1771161;80;20246;-69
2020/12/01 06:19:17;;;;;;;;;;;29.20;53.50;;;;;;1789790;79;20479;-69
2020/12/01 06:21:48;;;;;;;;;;;29.20;52.90;;;;;;1763879;80;20178;-69
2020/12/01 06:24:19;;;;;;;;;;;29.20;54.10;;;;;;1817608;78;20218;-69
2020/12/01 06:26:50;;;;;;;;;;;29.20;53.60;;;;;;1805445;78;20178;-70
2020/12/01 06:29:21;;;;;;;;;;;29.30;53.00;;;;;;1812572;78;20231;-70
2020/12/01 06:31:52;;;;;;;;;;;29.30;54.20;;;;;;1783760;79;20211;-69
2020/12/01 06:34:23;;;;;;;;;;;29.30;53.90;;;;;;1778629;80;20135;-70
2020/12/01 06:36:54;;;;;;;;;;;29.30;53.70;;;;;;1765293;80;20220;-70
2020/12/01 06:39:26;;;;;;;;;;;29.30;52.60;;;;;;1795319;79;20177;-69
2020/12/01 06:41:57;;;;;;;;;;;29.40;52.90;;;;;;1765277;80;20634;-68
2020/12/01 06:44:28;;;;;;;;;;;29.30;52.90;;;;;;1763676;79;20228;-68
2020/12/01 06:46:58;;;;;;;;;;;29.30;52.80;;;;;;1795026;78;20214;-70
2020/12/01 06:49:34;;;;;;;;;;;29.30;54.90;;;;;;1842604;77;20254;-69
2020/12/01 06:52:02;;;;;;;;;;;29.20;53.80;;;;;;1837826;77;20309;-69
2020/12/01 06:54:32;;;;;;;;;;;29.20;54.20;;;;;;1845463;77;20264;-69
2020/12/01 06:57:04;;;;;;;;;;;29.20;53.70;;;;;;1838623;77;20178;-68
2020/12/01 06:59:35;;;;;;;;;;;29.10;54.90;;;;;;1811678;78;20174;-69
2020/12/01 07:02:06;;;;;;;;;;;29.10;54.10;;;;;;1821995;77;20176;-69
2020/12/01 07:04:36;;;;;;;;;;;29.10;54.50;;;;;;1828763;77;20214;-68
2020/12/01 07:07:07;;;;;;;;;;;29.10;54.40;;;;;;1835106;77;20206;-68
2020/12/01 07:09:38;;;;;;;;;;;29.00;53.40;;;;;;1832163;77;20178;-69
2020/12/01 07:12:09;;;;;;;;;;;29.00;54.40;;;;;;1826530;77;20171;-69
2020/12/01 07:14:43;;;;;;;;;;;29.00;55.00;;;;;;1834143;77;20214;-71
2020/12/01 07:17:14;;;;;;;;;;;28.90;54.60;;;;;;1829252;77;20177;-68
2020/12/01 07:19:46;;;;;;;;;;;28.90;54.40;;;;;;1800869;77;20252;-69
2020/12/01 07:22:25;;;;;;;;;;;28.90;54.80;;;;;;1830769;77;20261;-70
2020/12/01 07:24:57;;;;;;;;;;;28.90;55.10;;;;;;1825630;77;20217;-68
2020/12/01 07:27:28;;;;;;;;;;;28.80;55.80;;;;;;1836112;77;20168;-68
2020/12/01 07:30:00;;;;;;;;;;;28.80;54.90;;;;;;1842107;77;20321;-68
2020/12/01 07:32:31;;;;;;;;;;;28.90;54.70;;;;;;1839500;77;20162;-69
2020/12/01 07:35:04;;;;;;;;;;;28.90;54.80;;;;;;1841492;77;20234;-69
2020/12/01 07:37:35;;;;;;;;;;;28.80;54.70;;;;;;1794755;78;20468;-69
2020/12/01 07:40:08;;;;;;;;;;;28.80;54.60;;;;;;1757185;80;20212;-69
2020/12/01 07:45:28;;;;;;;;;;;28.80;54.10;;;;;;1844818;76;20216;-68
2020/12/01 07:47:59;;;;;;;;;;;28.80;54.20;;;;;;1841007;77;20207;-69
2020/12/01 07:50:30;;;;;;;;;;;28.70;54.40;;;;;;1864467;76;20182;-68
2020/12/01 07:53:01;;;;;;;;;;;28.80;54.40;;;;;;1859959;75;20199;-69
2020/12/01 07:55:32;;;;;;;;;;;28.70;54.70;;;;;;1846385;77;20225;-69
2020/12/01 07:58:08;;;;;;;;;;;28.70;54.90;;;;;;1862999;75;20247;-69
2020/12/01 08:00:35;;;;;;;;;;;28.70;54.90;;;;;;1854183;75;20162;-68
2020/12/01 08:03:08;;;;;;;;;;;28.70;54.90;;;;;;1851641;75;20170;-68
2020/12/01 08:05:38;;;;;;;;;;;28.60;54.70;;;;;;1855051;75;20287;-68
2020/12/01 08:08:09;;;;;;;;;;;28.70;55.40;;;;;;1862171;75;20512;-69
2020/12/01 08:10:40;;;;;;;;;;;28.60;55.30;;;;;;1858344;76;20174;-68
2020/12/01 08:16:02;;;;;;;;;;;28.70;55.00;;;;;;1832621;77;20212;-71
2020/12/01 08:18:34;;;;;;;;;;;28.70;55.30;;;;;;1809149;78;20397;-69
2020/12/01 08:21:04;;;;;;;;;;;28.70;55.20;;;;;;1812071;78;20301;-67
2020/12/01 08:23:34;;;;;;;;;;;28.80;54.90;;;;;;1828190;77;20746;-67
2020/12/01 08:26:05;;;;;;;;;;;28.70;55.20;;;;;;1862953;76;20296;-68
2020/12/01 08:28:36;;;;;;;;;;;28.80;55.00;;;;;;1865673;76;20187;-67
2020/12/01 08:31:08;;;;;;;;;;;28.70;55.40;;;;;;1847985;76;20179;-68
2020/12/01 08:33:41;;;;;;;;;;;28.70;55.40;;;;;;1869379;76;20188;-68
2020/12/01 08:36:12;;;;;;;;;;;28.70;55.40;;;;;;1869962;76;20182;-68
2020/12/01 08:38:44;;;;;;;;;;;28.70;55.10;;;;;;1858722;75;20154;-67
2020/12/01 08:41:15;;;;;;;;;;;28.70;54.90;;;;;;1861142;76;20195;-68
2020/12/01 08:43:51;;;;;;;;;;;28.70;54.90;;;;;;1843376;76;20286;-69
2020/12/01 08:46:22;;;;;;;;;;;28.70;54.70;;;;;;1821896;77;20257;-75
2020/12/01 08:49:23;;;;;;;;;;;28.70;54.80;;;;;;1855873;76;20652;-70
2020/12/01 08:51:37;;;;;;;;;;;28.70;54.60;;;;;;1850944;76;20166;-67
2020/12/01 08:54:11;;;;;;;;;;;28.80;55.00;;;;;;1872229;76;20206;-67
2020/12/01 08:56:42;;;;;;;;;;;28.80;55.00;;;;;;1849586;76;20194;-68
2020/12/01 08:59:14;;;;;;;;;;;28.70;54.80;;;;;;1864978;76;20230;-67
2020/12/01 09:01:44;;;;;;;;;;;28.80;54.30;;;;;;1858370;76;20166;-66
2020/12/01 09:04:18;;;;;;;;;;;28.80;54.30;;;;;;1878996;76;20218;-68
2020/12/01 09:06:51;;;;;;;;;;;28.80;55.00;;;;;;1855969;76;20175;-68
2020/12/01 09:09:27;;;;;;;;;;;28.80;55.40;;;;;;1856270;75;20208;-69
2020/12/01 09:12:12;;;;;;;;;;;28.70;55.30;;;;;;1862475;76;20202;-69
2020/12/01 09:17:22;;;;;;;;;;;28.70;55.10;;;;;;1871003;76;20395;-70
2020/12/01 09:22:19;;;;;;;;;;;28.70;55.10;;;;;;1886556;75;20325;-67
2020/12/01 09:24:49;;;;;;;;;;;28.70;55.10;;;;;;1870667;75;20223;-69
2020/12/01 09:27:19;;;;;;;;;;;28.70;55.40;;;;;;1860290;75;20231;-67
2020/12/01 09:29:50;;;;;;;;;;;28.70;55.50;;;;;;1877648;75;20234;-68
2020/12/01 09:32:21;;;;;;;;;;;28.70;55.60;;;;;;1872857;75;20199;-67
2020/12/01 09:34:51;;;;;;;;;;;28.70;55.60;;;;;;1873603;75;20276;-70
2020/12/01 09:37:21;;;;;;;;;;;28.60;55.40;;;;;;1854301;77;20195;-70
2020/12/01 09:39:54;;;;;;;;;;;28.60;55.50;;;;;;1854505;75;20529;-68
2020/12/01 09:42:28;;;;;;;;;;;28.60;55.60;;;;;;1874254;76;20277;-69
2020/12/01 10:00:45;;;;;;;;;;;28.30;56.20;;;;;;1861769;76;20175;-68
2020/12/01 10:07:14;;;;;;;;;;;28.20;56.50;;;;;;1917390;74;20157;-68
2020/12/01 10:08:23;;;;;;;;;;;28.20;56.80;;;;;;1919436;74;20177;-70
2020/12/01 10:35:55;;;;;;;;;;;27.90;57.80;;;;;;1915069;74;20493;-85
2020/12/01 10:38:25;;;;;;;;;;;27.80;57.90;;;;;;1917970;75;20252;-86
2020/12/01 10:40:55;;;;;;;;;;;27.80;58.00;;;;;;1918657;74;20285;-87
2020/12/01 10:43:25;;;;;;;;;;;27.80;58.20;;;;;;1921420;74;20358;-85
2020/12/01 10:45:55;;;;;;;;;;;27.70;58.30;;;;;;1881534;76;20251;-82
2020/12/01 10:48:25;;;;;;;;;;;27.70;58.40;;;;;;1912423;74;20266;-85
2020/12/01 10:50:54;;;;;;;;;;;27.70;58.50;;;;;;1909828;75;20529;-84
2020/12/01 10:53:24;;;;;;;;;;;27.60;58.60;;;;;;1894365;75;20174;-83
2020/12/01 10:55:56;;;;;;;;;;;27.60;58.70;;;;;;1910980;74;20281;-84
2020/12/01 10:58:26;;;;;;;;;;;27.50;58.80;;;;;;1924476;74;20161;-81
2020/12/01 11:00:56;;;;;;;;;;;27.50;59.10;;;;;;1928019;74;20282;-83
2020/12/01 11:03:34;;;;;;;;;;;27.50;59.20;;;;;;1927904;74;20251;-80
2020/12/01 11:06:13;;;;;;;;;;;27.40;59.20;;;;;;1918638;74;20211;-83
2020/12/01 11:08:51;;;;;;;;;;;27.40;59.30;;;;;;1911311;75;20232;-80
2020/12/01 11:11:23;;;;;;;;;;;27.40;59.40;;;;;;1910437;73;20210;-81
2020/12/01 11:13:55;;;;;;;;;;;27.40;59.70;;;;;;1851180;76;20241;-80
2020/12/01 11:16:28;;;;;;;;;;;27.30;59.50;;;;;;1915938;75;20283;-81
2020/12/01 11:19:03;;;;;;;;;;;27.30;59.60;;;;;;1901182;75;20444;-83
2020/12/01 11:21:36;;;;;;;;;;;27.30;59.90;;;;;;1924119;73;20218;-84
2020/12/01 11:24:05;;;;;;;;;;;27.20;59.80;;;;;;1917845;73;20196;-81
2020/12/01 11:26:36;;;;;;;;;;;27.20;59.90;;;;;;1935220;73;20527;-82
2020/12/01 11:29:06;;;;;;;;;;;27.10;59.90;;;;;;1912104;73;20154;-81
2020/12/01 11:31:36;;;;;;;;;;;27.10;60.00;;;;;;1904631;73;20185;-83
2020/12/01 11:34:07;;;;;;;;;;;27.10;60.20;;;;;;1917690;73;20249;-82
2020/12/01 11:36:39;;;;;;;;;;;27.10;60.20;;;;;;1917000;73;20180;-81
2020/12/01 11:39:10;;;;;;;;;;;27.00;60.30;;;;;;1891847;74;20387;-83
2020/12/01 11:41:40;;;;;;;;;;;27.00;60.40;;;;;;1841556;76;20290;-82
2020/12/01 11:44:12;;;;;;;;;;;27.00;60.60;;;;;;1900582;73;20466;-82
2020/12/01 11:46:42;;;;;;;;;;;27.00;60.70;;;;;;1931101;73;20429;-83
2020/12/01 11:49:12;;;;;;;;;;;27.00;60.90;;;;;;1909792;73;20222;-84
2020/12/01 11:52:00;;;;;;;;;;;27.00;61.20;;;;;;1898224;73;20708;-82
2020/12/01 11:54:24;;;;;;;;;;;26.90;61.00;;;;;;1910838;75;20210;-81
2020/12/01 11:57:03;;;;;;;;;;;26.90;61.20;;;;;;1887985;76;20246;-81
2020/12/01 11:59:32;;;;;;;;;;;26.90;61.40;;;;;;1840687;77;20191;-83
2020/12/01 12:02:03;;;;;;;;;;;26.80;61.40;;;;;;1916184;74;20132;-82
2020/12/01 12:04:34;;;;;;;;;;;26.80;61.60;;;;;;1912392;74;20172;-84
2020/12/01 12:07:04;;;;;;;;;;;26.80;61.70;;;;;;1920889;74;20214;-83
2020/12/01 12:09:35;;;;;;;;;;;26.80;61.80;;;;;;1926071;74;20276;-81
2020/12/01 12:12:05;;;;;;;;;;;26.70;61.80;;;;;;1921044;74;20275;-82
2020/12/01 12:14:35;;;;;;;;;;;26.70;61.80;;;;;;1906580;75;20169;-82
2020/12/01 12:17:05;;;;;;;;;;;26.70;62.00;;;;;;1916809;75;20141;-81
2020/12/01 12:19:36;;;;;;;;;;;26.70;62.20;;;;;;1917843;75;20185;-83
2020/12/01 12:22:06;;;;;;;;;;;26.70;62.30;;;;;;1890414;75;20251;-82
2020/12/01 12:24:39;;;;;;;;;;;26.60;62.30;;;;;;1909366;75;20569;-83
2020/12/01 12:27:09;;;;;;;;;;;26.60;62.60;;;;;;1919650;75;20229;-83
2020/12/01 12:29:38;;;;;;;;;;;26.50;62.90;;;;;;1917087;75;20157;-83
2020/12/01 12:32:08;;;;;;;;;;;26.50;63.10;;;;;;1912527;75;20221;-83
2020/12/01 12:34:38;;;;;;;;;;;26.50;63.30;;;;;;1913950;75;20154;-83
2020/12/01 12:37:08;;;;;;;;;;;26.50;63.60;;;;;;1906719;75;20135;-82
2020/12/01 12:39:38;;;;;;;;;;;26.40;63.50;;;;;;1912708;75;20255;-83
2020/12/01 12:42:09;;;;;;;;;;;26.40;63.90;;;;;;1905710;75;20420;-83
2020/12/01 12:44:39;;;;;;;;;;;26.40;63.90;;;;;;1912341;75;20213;-84
2020/12/01 12:47:09;;;;;;;;;;;26.40;64.20;;;;;;1914074;75;20336;-84
2020/12/01 12:49:39;;;;;;;;;;;26.40;64.10;;;;;;1914662;75;20232;-82
2020/12/01 12:52:09;;;;;;;;;;;26.40;64.20;;;;;;1910588;74;20242;-83
2020/12/01 12:54:39;;;;;;;;;;;26.40;64.40;;;;;;1913272;74;20269;-83
2020/12/01 12:57:09;;;;;;;;;;;26.30;64.50;;;;;;1896351;74;20152;-83
2020/12/01 12:59:39;;;;;;;;;;;26.30;64.50;;;;;;1915135;74;20160;-84
2020/12/01 13:02:09;;;;;;;;;;;26.30;64.60;;;;;;1921845;73;20255;-84
2020/12/01 13:04:39;;;;;;;;;;;26.30;64.70;;;;;;1923186;73;20196;-83
2020/12/01 13:07:09;;;;;;;;;;;26.30;64.70;;;;;;1921025;74;20291;-83
2020/12/01 13:09:39;;;;;;;;;;;26.20;64.60;;;;;;1913499;74;20206;-83
2020/12/01 13:12:08;;;;;;;;;;;26.20;64.80;;;;;;1925078;74;20428;-83
2020/12/01 13:14:43;;;;;;;;;;;26.20;64.80;;;;;;1923034;74;20188;-83
2020/12/01 13:17:13;;;;;;;;;;;26.20;64.90;;;;;;1927206;73;20160;-83
2020/12/01 13:19:43;;;;;;;;;;;26.20;65.00;;;;;;1920534;74;20522;-83
2020/12/01 13:22:13;;;;;;;;;;;26.20;64.90;;;;;;1924732;73;20184;-84
2020/12/01 13:24:43;;;;;;;;;;;26.20;65.90;;;;;;1922881;73;20149;-84
2020/12/01 13:27:13;;;;;;;;;;;26.10;65.00;;;;;;1920336;74;20185;-84
2020/12/01 13:29:43;;;;;;;;;;;26.10;65.10;;;;;;1915545;73;20200;-73
2020/12/01 13:32:13;;;;;;;;;;;26.10;65.20;;;;;;1896609;73;20391;-73
2020/12/01 13:34:43;;;;;;;;;;;26.10;65.30;;;;;;1925689;74;20212;-72
2020/12/01 13:37:13;;;;;;;;;;;26.20;65.50;;;;;;1929019;73;20165;-74
2020/12/01 13:39:43;;;;;;;;;;;26.20;65.50;;;;;;1927276;73;20168;-72
2020/12/01 13:42:13;;;;;;;;;;;26.20;65.50;;;;;;1932288;73;20263;-73
2020/12/01 13:44:43;;;;;;;;;;;26.10;65.40;;;;;;1919071;73;20208;-79
2020/12/01 13:47:14;;;;;;;;;;;26.20;65.50;;;;;;1823579;77;20209;-80
2020/12/01 13:49:44;;;;;;;;;;;26.10;65.40;;;;;;1858420;76;20263;-80
2020/12/01 13:52:14;;;;;;;;;;;26.20;65.50;;;;;;1834766;77;20254;-81
2020/12/01 13:54:44;;;;;;;;;;;26.20;66.20;;;;;;1837676;77;20245;-80
2020/12/01 13:57:14;;;;;;;;;;;26.20;65.40;;;;;;1846247;76;20386;-79
2020/12/01 13:59:44;;;;;;;;;;;26.20;65.50;;;;;;1860914;76;20234;-80
2020/12/01 14:02:15;;;;;;;;;;;26.10;65.20;;;;;;1842077;76;20199;-79
2020/12/01 14:04:45;;;;;;;;;;;26.10;65.30;;;;;;1840944;76;20216;-80
2020/12/01 14:07:15;;;;;;;;;;;26.10;65.20;;;;;;1839704;76;20209;-80
2020/12/01 14:09:44;;;;;;;;;;;26.10;65.30;;;;;;1852065;76;20334;-79
2020/12/01 14:12:15;;;;;;;;;;;26.10;65.30;;;;;;1846785;76;20197;-80
2020/12/01 14:14:48;;;;;;;;;;;26.10;65.30;;;;;;1843168;76;20127;-80
2020/12/01 14:17:16;;;;;;;;;;;26.20;65.20;;;;;;1841125;77;20209;-81
2020/12/01 14:19:47;;;;;;;;;;;26.10;65.10;;;;;;1849506;76;20122;-79
2020/12/01 14:22:17;;;;;;;;;;;26.10;65.20;;;;;;1840521;77;20187;-80
2020/12/01 14:24:47;;;;;;;;;;;26.10;65.20;;;;;;1845475;77;20155;-79
2020/12/01 14:27:20;;;;;;;;;;;26.10;65.10;;;;;;1850097;77;20216;-79
2020/12/01 14:29:49;;;;;;;;;;;26.10;65.30;;;;;;1855147;76;20252;-81
2020/12/01 14:32:19;;;;;;;;;;;26.10;65.30;;;;;;1848768;76;20409;-80
2020/12/01 14:34:49;;;;;;;;;;;26.00;65.40;;;;;;1852235;76;20363;-79
2020/12/01 14:37:22;;;;;;;;;;;26.00;65.50;;;;;;1847523;76;20318;-80
2020/12/01 14:39:52;;;;;;;;;;;26.00;65.70;;;;;;1854875;76;20474;-80
2020/12/01 14:42:23;;;;;;;;;;;26.00;66.00;;;;;;1837411;76;20134;-80
2020/12/01 14:44:53;;;;;;;;;;;26.00;66.00;;;;;;1847612;76;20168;-79
2020/12/01 14:47:24;;;;;;;;;;;25.90;66.20;;;;;;1842017;76;20175;-79
2020/12/01 14:49:55;;;;;;;;;;;25.90;66.20;;;;;;1842584;76;20157;-78
2020/12/01 14:52:26;;;;;;;;;;;25.80;66.40;;;;;;1843574;76;20420;-78
2020/12/01 14:54:57;;;;;;;;;;;25.80;66.50;;;;;;1890228;75;20323;-80
2020/12/01 14:57:28;;;;;;;;;;;25.80;67.10;;;;;;1857539;75;20207;-79
2020/12/01 15:00:04;;;;;;;;;;;25.80;67.00;;;;;;1890525;75;20210;-78
2020/12/01 15:02:36;;;;;;;;;;;25.70;67.00;;;;;;1873505;75;20167;-78
2020/12/01 15:05:07;;;;;;;;;;;25.70;67.10;;;;;;1875033;75;20278;-79
2020/12/01 15:07:38;;;;;;;;;;;25.70;67.20;;;;;;1863673;75;20207;-78
2020/12/01 15:10:09;;;;;;;;;;;25.70;67.50;;;;;;1871040;75;20200;-78
2020/12/01 15:12:40;;;;;;;;;;;25.60;67.40;;;;;;1873542;75;20221;-79
2020/12/01 15:15:12;;;;;;;;;;;25.60;67.70;;;;;;1872533;75;20369;-79
2020/12/01 15:17:42;;;;;;;;;;;25.50;67.90;;;;;;1882871;74;21038;-79
2020/12/01 15:20:13;;;;;;;;;;;25.50;67.80;;;;;;1849534;77;20260;-79
2020/12/01 15:22:44;;;;;;;;;;;25.50;68.30;;;;;;1855900;77;20172;-79
2020/12/01 15:25:19;;;;;;;;;;;25.50;68.40;;;;;;1846385;77;20214;-78
2020/12/01 15:27:50;;;;;;;;;;;25.40;69.00;;;;;;1853517;77;20187;-78
2020/12/01 15:30:21;;;;;;;;;;;25.40;69.50;;;;;;1850397;77;20281;-79
2020/12/01 15:32:51;;;;;;;;;;;25.40;68.80;;;;;;1856278;77;20255;-80
2020/12/01 15:35:24;;;;;;;;;;;25.40;68.80;;;;;;1846438;77;20132;-80